createdAt,value
2019-02-28T00:01:58.738Z,21.73
2019-02-28T00:04:32.746Z,22.47
2019-02-28T00:07:01.041Z,22.77
2019-02-28T00:09:30.100Z,22.20
2019-02-28T00:11:59.201Z,23.67
2019-02-28T00:14:28.501Z,23.10
2019-02-28T00:16:57.771Z,22.93
2019-02-28T00:19:27.044Z,24.43
2019-02-28T00:21:56.148Z,23.73
2019-02-28T00:24:27.197Z,24.30
2019-02-28T00:26:55.954Z,24.83
2019-02-28T00:29:24.978Z,23.37
2019-02-28T00:31:54.200Z,24.67
2019-02-28T00:34:23.486Z,24.37
2019-02-28T00:36:53.351Z,24.07
2019-02-28T00:39:23.088Z,23.33
2019-02-28T00:41:52.168Z,25.03
2019-02-28T00:44:22.421Z,24.17
2019-02-28T00:46:51.388Z,25.90
2019-02-28T00:49:20.411Z,25.70
2019-02-28T00:51:49.944Z,23.90
2019-02-28T00:54:18.898Z,24.00
2019-02-28T00:56:51.619Z,25.87
2019-02-28T00:59:19.080Z,25.83
2019-02-28T01:01:48.087Z,25.20
2019-02-28T01:04:30.708Z,26.17
2019-02-28T01:07:08.867Z,24.70
2019-02-28T01:09:38.087Z,24.33
2019-02-28T01:12:07.203Z,25.07
2019-02-28T01:14:37.679Z,25.80
2019-02-28T01:17:06.729Z,25.50
2019-02-28T01:19:36.062Z,25.87
2019-02-28T01:22:05.220Z,27.37
2019-02-28T01:24:35.418Z,25.50
2019-02-28T01:27:04.579Z,27.17
2019-02-28T01:29:35.694Z,26.50
2019-02-28T01:32:07.632Z,26.97
2019-02-28T01:34:36.663Z,26.30
2019-02-28T01:37:07.668Z,28.27
2019-02-28T01:39:36.674Z,27.17
2019-02-28T01:42:05.737Z,26.07
2019-02-28T01:44:35.825Z,25.90
2019-02-28T01:47:07.644Z,27.60
2019-02-28T01:49:36.735Z,27.27
2019-02-28T01:52:09.803Z,27.13
2019-02-28T01:54:47.779Z,28.17
2019-02-28T01:57:18.624Z,27.20
2019-02-28T01:59:49.062Z,26.63
2019-02-28T02:02:18.625Z,27.40
2019-02-28T02:04:48.020Z,27.63
2019-02-28T02:07:21.398Z,26.77
2019-02-28T02:09:50.740Z,27.70
2019-02-28T02:12:20.220Z,28.00
2019-02-28T02:14:50.141Z,27.80
2019-02-28T02:17:19.607Z,28.60
2019-02-28T02:19:49.354Z,28.33
2019-02-28T02:22:19.340Z,28.20
2019-02-28T02:24:50.128Z,27.77
2019-02-28T02:27:20.380Z,27.77
2019-02-28T02:29:50.908Z,28.40
2019-02-28T02:32:20.563Z,29.80
2019-02-28T02:34:50.356Z,30.33
2019-02-28T02:37:20.274Z,27.93
2019-02-28T02:39:51.273Z,28.33
2019-02-28T02:42:21.448Z,28.97
2019-02-28T02:44:50.939Z,30.07
2019-02-28T02:47:20.373Z,28.67
2019-02-28T02:49:56.181Z,30.00
2019-02-28T02:52:25.844Z,30.53
2019-02-28T02:54:53.118Z,30.07
2019-02-28T02:57:22.659Z,29.80
2019-02-28T02:59:52.038Z,33.00
2019-02-28T03:02:22.147Z,31.47
2019-02-28T03:04:57.917Z,31.80
2019-02-28T03:07:24.569Z,31.57
2019-02-28T03:09:53.708Z,30.03
2019-02-28T03:12:25.128Z,31.57
2019-02-28T03:14:59.567Z,31.43
2019-02-28T03:17:37.972Z,31.50
2019-02-28T03:20:09.605Z,32.23
2019-02-28T03:22:46.795Z,32.30
2019-02-28T03:25:16.536Z,31.83
2019-02-28T03:27:55.052Z,31.20
2019-02-28T03:30:28.483Z,33.37
2019-02-28T03:32:51.226Z,32.77
2019-02-28T03:35:21.131Z,32.57
2019-02-28T03:37:54.464Z,32.60
2019-02-28T03:40:23.863Z,32.73
2019-02-28T03:42:53.271Z,31.67
2019-02-28T03:45:23.019Z,32.60
2019-02-28T03:47:58.411Z,32.73
2019-02-28T03:50:23.861Z,32.30
2019-02-28T03:52:54.011Z,31.33
2019-02-28T03:55:23.952Z,31.40
2019-02-28T03:57:53.315Z,31.43
2019-02-28T04:00:22.700Z,31.00
2019-02-28T04:02:56.631Z,32.10
2019-02-28T04:05:28.136Z,30.83
2019-02-28T04:07:55.007Z,32.57
2019-02-28T04:10:24.551Z,31.43
2019-02-28T04:12:57.761Z,33.63
2019-02-28T04:15:27.043Z,30.77
2019-02-28T04:17:56.233Z,29.83
2019-02-28T04:20:25.398Z,31.50
2019-02-28T04:22:58.866Z,29.97
2019-02-28T04:25:25.666Z,31.03
2019-02-28T04:27:54.927Z,30.93
2019-02-28T04:30:24.236Z,31.17
2019-02-28T04:32:54.414Z,30.77
2019-02-28T04:35:25.507Z,31.27
2019-02-28T04:37:54.783Z,29.67
2019-02-28T04:40:26.906Z,31.20
2019-02-28T04:42:55.712Z,30.87
2019-02-28T04:45:26.186Z,29.73
2019-02-28T04:47:55.884Z,32.50
2019-02-28T04:50:25.109Z,30.77
2019-02-28T04:52:54.354Z,32.47
2019-02-28T04:55:23.641Z,31.03
2019-02-28T04:57:53.038Z,32.67
2019-02-28T05:00:22.842Z,30.73
2019-02-28T05:02:54.856Z,32.07
2019-02-28T05:05:23.367Z,31.50
2019-02-28T05:07:52.672Z,31.77
2019-02-28T05:10:22.215Z,32.43
2019-02-28T05:12:52.402Z,31.97
2019-02-28T05:15:21.850Z,31.83
2019-02-28T05:17:53.124Z,31.17
2019-02-28T05:20:22.518Z,31.10
2019-02-28T05:22:51.775Z,32.70
2019-02-28T05:25:20.859Z,31.10
2019-02-28T05:27:50.093Z,31.97
2019-02-28T05:30:19.940Z,31.67
2019-02-28T05:32:49.466Z,32.13
2019-02-28T05:35:25.151Z,31.57
2019-02-28T05:37:51.082Z,33.27
2019-02-28T05:40:25.506Z,31.87
2019-02-28T05:43:05.928Z,31.27
2019-02-28T05:45:36.008Z,31.77
2019-02-28T05:48:12.811Z,31.80
2019-02-28T05:50:44.345Z,33.30
2019-02-28T05:53:14.362Z,34.80
2019-02-28T05:55:44.763Z,32.20
2019-02-28T05:58:17.513Z,34.27
2019-02-28T06:00:46.097Z,33.33
2019-02-28T06:03:15.541Z,34.03
2019-02-28T06:05:46.429Z,33.47
2019-02-28T06:08:16.698Z,32.37
2019-02-28T06:10:47.148Z,35.03
2019-02-28T06:13:18.254Z,34.60
2019-02-28T06:15:48.148Z,35.30
2019-02-28T06:18:18.453Z,33.50
2019-02-28T06:20:50.977Z,32.80
2019-02-28T06:23:19.284Z,36.07
2019-02-28T06:25:48.707Z,34.20
2019-02-28T06:28:18.303Z,36.67
2019-02-28T06:30:47.851Z,36.20
2019-02-28T06:33:17.158Z,36.37
2019-02-28T06:35:49.581Z,36.30
2019-02-28T06:38:19.215Z,35.23
2019-02-28T06:40:49.155Z,36.83
2019-02-28T06:43:19.613Z,36.93
2019-02-28T06:45:49.140Z,37.53
2019-02-28T06:48:20.869Z,37.97
2019-02-28T06:50:49.138Z,37.50
2019-02-28T06:53:18.645Z,38.73
2019-02-28T06:55:48.196Z,39.07
2019-02-28T06:58:18.135Z,39.23
2019-02-28T07:00:48.097Z,37.83
2019-02-28T07:03:17.459Z,38.13
2019-02-28T07:05:46.470Z,38.57
2019-02-28T07:08:15.615Z,39.37
2019-02-28T07:10:48.552Z,40.00
2019-02-28T07:13:15.957Z,40.07
2019-02-28T07:15:45.099Z,38.87
2019-02-28T07:18:14.264Z,40.03
2019-02-28T07:20:43.261Z,39.03
2019-02-28T07:23:13.651Z,39.50
2019-02-28T07:25:44.281Z,38.73
2019-02-28T07:28:13.356Z,39.80
2019-02-28T07:30:42.413Z,40.97
2019-02-28T07:33:11.390Z,40.13
2019-02-28T07:35:43.088Z,39.43
2019-02-28T07:38:12.376Z,39.27
2019-02-28T07:40:41.492Z,40.57
2019-02-28T07:43:13.047Z,38.07
2019-02-28T07:45:41.737Z,36.80
2019-02-28T07:48:10.891Z,37.40
2019-02-28T07:50:40.078Z,38.57
2019-02-28T07:53:09.839Z,37.53
2019-02-28T07:55:39.154Z,35.70
2019-02-28T07:58:08.210Z,36.03
2019-02-28T08:00:37.328Z,35.07
2019-02-28T08:03:06.440Z,33.53
2019-02-28T08:05:35.630Z,33.97
2019-02-28T08:08:05.016Z,32.37
2019-02-28T08:10:34.273Z,31.33
2019-02-28T08:13:24.176Z,32.30
2019-02-28T08:15:56.229Z,29.67
2019-02-28T08:18:24.016Z,32.83
2019-02-28T08:20:53.035Z,29.77
2019-02-28T08:24:02.419Z,29.50
2019-02-28T08:26:53.587Z,29.70
2019-02-28T08:29:46.267Z,28.80
2019-02-28T08:32:13.002Z,28.23
2019-02-28T08:34:41.981Z,27.87
2019-02-28T08:37:11.188Z,27.43
2019-02-28T08:39:41.153Z,27.63
2019-02-28T08:42:11.236Z,27.87
2019-02-28T08:44:40.380Z,27.17
2019-02-28T08:47:09.461Z,27.50
2019-02-28T08:49:42.976Z,25.17
2019-02-28T08:52:09.665Z,25.03
2019-02-28T08:54:38.926Z,27.43
2019-02-28T08:57:08.137Z,27.40
2019-02-28T08:59:37.157Z,27.40
2019-02-28T09:02:06.346Z,24.43
2019-02-28T09:04:41.173Z,25.73
2019-02-28T09:07:06.803Z,25.00
2019-02-28T09:09:35.942Z,25.37
2019-02-28T09:12:05.299Z,24.23
2019-02-28T09:14:34.344Z,25.00
2019-02-28T09:17:03.361Z,23.13
2019-02-28T09:19:35.954Z,22.87
2019-02-28T09:22:03.426Z,23.07
2019-02-28T09:24:32.454Z,21.90
2019-02-28T09:27:04.066Z,21.47
2019-02-28T09:29:32.289Z,21.77
2019-02-28T09:32:01.516Z,21.10
2019-02-28T09:34:31.472Z,21.93
2019-02-28T09:37:00.667Z,20.93
2019-02-28T09:39:29.694Z,20.67
2019-02-28T09:41:58.839Z,22.50
2019-02-28T09:44:31.512Z,21.17
2019-02-28T09:47:00.085Z,19.80
2019-02-28T09:49:29.172Z,17.83
2019-02-28T09:51:58.383Z,18.53
2019-02-28T09:54:27.396Z,18.27
2019-02-28T09:56:56.469Z,16.83
2019-02-28T09:59:25.695Z,18.53
2019-02-28T10:02:01.466Z,17.60
2019-02-28T10:04:27.350Z,18.23
2019-02-28T10:06:56.975Z,16.67
2019-02-28T10:09:26.376Z,18.27
2019-02-28T10:11:55.555Z,17.17
2019-02-28T10:14:25.627Z,17.00
2019-02-28T10:16:55.771Z,17.53
2019-02-28T10:19:24.731Z,18.20
2019-02-28T10:21:53.898Z,17.30
2019-02-28T10:24:24.736Z,17.67
2019-02-28T10:26:53.867Z,17.93
2019-02-28T10:29:22.989Z,18.30
2019-02-28T10:31:52.056Z,17.97
2019-02-28T10:34:23.456Z,18.63
2019-02-28T10:36:52.953Z,16.23
2019-02-28T10:39:22.044Z,17.47
2019-02-28T10:41:51.059Z,18.07
2019-02-28T10:44:20.107Z,18.17
2019-02-28T10:46:50.302Z,18.30
2019-02-28T10:49:21.115Z,18.63
2019-02-28T10:51:50.875Z,16.67
2019-02-28T10:54:22.664Z,16.33
2019-02-28T10:56:52.013Z,15.73
2019-02-28T10:59:21.364Z,17.53
2019-02-28T11:01:52.170Z,16.03
2019-02-28T11:04:21.636Z,16.03
2019-02-28T11:06:50.921Z,16.63
2019-02-28T11:09:25.372Z,14.77
2019-02-28T11:11:54.194Z,15.47
2019-02-28T11:14:23.346Z,14.57
2019-02-28T11:16:59.153Z,15.37
2019-02-28T11:19:23.398Z,16.33
2019-02-28T11:21:52.639Z,15.83
2019-02-28T11:24:23.996Z,14.43
2019-02-28T11:26:55.558Z,17.53
2019-02-28T11:29:24.868Z,16.30
2019-02-28T11:31:55.176Z,17.57
2019-02-28T11:34:24.261Z,15.13
2019-02-28T11:36:53.406Z,15.90
2019-02-28T11:39:22.639Z,14.67
2019-02-28T11:41:52.593Z,14.47
2019-02-28T11:44:22.599Z,14.67
2019-02-28T11:49:34.968Z,14.83
2019-02-28T12:18:26.538Z,13.33
2019-02-28T16:22:52.087Z,8.30
2019-02-28T16:25:20.447Z,7.67
2019-02-28T16:27:49.452Z,6.97
2019-02-28T16:30:18.812Z,6.33
2019-02-28T16:32:49.115Z,6.50
2019-02-28T16:35:18.629Z,6.63
2019-02-28T16:37:47.613Z,6.27
2019-02-28T16:40:25.927Z,7.00
2019-02-28T16:42:51.353Z,6.57
2019-02-28T16:45:28.042Z,6.60
2019-02-28T16:47:59.528Z,7.03
2019-02-28T16:50:32.669Z,5.63
2019-02-28T16:53:01.939Z,5.87
2019-02-28T16:55:31.893Z,5.90
2019-02-28T16:58:01.180Z,5.60
2019-02-28T17:00:31.496Z,5.23
2019-02-28T17:03:07.331Z,4.80
2019-02-28T17:05:36.243Z,6.40
2019-02-28T17:08:07.323Z,5.97
2019-02-28T17:10:43.405Z,5.47
2019-02-28T17:13:42.884Z,6.73
2019-02-28T17:16:21.480Z,5.33
2019-02-28T17:18:53.508Z,6.07
2019-02-28T17:21:23.462Z,5.63
2019-02-28T17:23:52.782Z,5.43
2019-02-28T17:27:02.353Z,6.03
2019-02-28T17:30:11.034Z,5.43
2019-02-28T17:32:48.591Z,6.93
2019-02-28T17:35:17.917Z,5.87
2019-02-28T17:37:48.040Z,6.53
2019-02-28T17:40:17.322Z,6.57
2019-02-28T17:42:49.766Z,6.40
2019-02-28T17:45:26.978Z,5.47
2019-02-28T17:48:36.646Z,5.37
2019-02-28T17:51:18.832Z,6.53
2019-02-28T17:54:27.163Z,6.77
2019-02-28T17:57:41.649Z,6.23
2019-02-28T18:00:53.396Z,6.70
2019-02-28T18:04:04.384Z,7.40
2019-02-28T18:07:10.669Z,7.33
2019-02-28T18:10:15.878Z,7.87
2019-02-28T18:12:59.962Z,8.10
2019-02-28T18:16:25.468Z,8.70
2019-02-28T18:19:33.561Z,9.03
2019-02-28T18:26:14.255Z,9.40
2019-02-28T18:29:35.267Z,8.20
2019-02-28T18:32:04.982Z,8.87
2019-02-28T18:34:37.938Z,9.03
2019-02-28T18:37:11.834Z,9.00
2019-02-28T18:39:39.841Z,9.30
2019-02-28T18:43:27.012Z,8.50
2019-02-28T18:49:09.598Z,8.83
2019-02-28T18:51:41.913Z,7.87
2019-02-28T18:54:20.734Z,7.93
2019-02-28T19:00:59.445Z,7.40
2019-02-28T19:03:29.075Z,8.50
2019-02-28T19:05:59.331Z,7.93
2019-02-28T19:08:38.595Z,8.30
2019-02-28T19:11:08.792Z,7.50
2019-02-28T19:13:39.663Z,8.33
2019-02-28T19:16:12.510Z,8.47
2019-02-28T19:18:43.846Z,8.23
2019-02-28T19:21:17.821Z,8.13
2019-02-28T19:23:48.516Z,8.63
2019-02-28T19:26:25.147Z,9.33
2019-02-28T19:28:54.950Z,9.47
2019-02-28T19:31:24.753Z,8.33
2019-02-28T19:33:56.758Z,8.43
2019-02-28T19:36:30.759Z,8.57
2019-02-28T19:39:05.859Z,7.97
2019-02-28T19:41:41.880Z,7.37
2019-02-28T19:44:15.068Z,8.13
2019-02-28T19:46:44.990Z,7.57
2019-02-28T19:49:15.058Z,6.87
2019-02-28T19:51:46.167Z,6.63
2019-02-28T19:54:17.525Z,6.37
2019-02-28T19:56:47.236Z,6.20
2019-02-28T19:59:23.322Z,5.57
2019-02-28T20:01:53.130Z,6.40
2019-02-28T20:04:24.919Z,6.97
2019-02-28T20:06:54.659Z,6.33
2019-02-28T20:09:30.187Z,5.70
2019-02-28T20:12:02.750Z,5.70
2019-02-28T20:14:33.862Z,5.43
2019-02-28T20:17:03.855Z,5.93
2019-02-28T20:19:35.763Z,5.80
2019-02-28T20:22:08.686Z,6.07
2019-02-28T20:24:38.229Z,5.73
2019-02-28T20:27:08.512Z,5.53
2019-02-28T20:29:41.878Z,5.87
2019-02-28T20:32:56.426Z,5.73
2019-02-28T20:35:30.049Z,5.17
2019-02-28T20:38:33.087Z,5.37
2019-02-28T20:41:15.742Z,6.03
2019-02-28T20:43:46.660Z,5.27
2019-02-28T20:46:21.650Z,5.97
2019-02-28T20:48:56.028Z,5.80
2019-02-28T20:51:28.049Z,6.30
2019-02-28T20:54:01.740Z,6.70
2019-02-28T20:56:32.137Z,6.40
2019-02-28T20:59:04.230Z,6.60
2019-02-28T21:01:34.459Z,6.23
2019-02-28T21:04:09.807Z,7.07
2019-02-28T21:06:39.435Z,6.50
2019-02-28T21:09:08.934Z,6.00
2019-02-28T21:11:50.926Z,7.37
2019-02-28T21:14:20.181Z,6.53
2019-02-28T21:16:50.029Z,7.07
2019-02-28T21:19:19.708Z,6.53
2019-02-28T21:21:49.335Z,6.53
2019-02-28T21:24:19.005Z,6.93
2019-02-28T21:26:48.953Z,7.27
2019-02-28T21:29:24.638Z,7.47
2019-02-28T21:31:55.850Z,7.70
2019-02-28T21:34:25.934Z,8.17
2019-02-28T21:37:02.168Z,7.97
2019-02-28T21:39:29.293Z,7.93
2019-02-28T21:41:59.544Z,7.67
2019-02-28T21:44:33.087Z,8.20
2019-02-28T21:47:05.277Z,7.83
2019-02-28T21:49:35.326Z,8.60
2019-02-28T21:52:05.250Z,7.73
2019-02-28T21:54:39.364Z,7.70
2019-02-28T21:57:16.260Z,8.57
2019-02-28T21:59:46.016Z,8.70
2019-02-28T22:02:18.740Z,8.37
2019-02-28T22:04:49.511Z,8.23
2019-02-28T22:07:24.772Z,8.53
2019-02-28T22:09:56.558Z,9.47
2019-02-28T22:12:26.232Z,9.00
2019-02-28T22:15:02.325Z,8.87
2019-02-28T22:17:34.091Z,8.63
2019-02-28T22:20:03.920Z,8.40
2019-02-28T22:22:40.658Z,9.63
2019-02-28T22:25:21.604Z,9.70
2019-02-28T22:27:59.577Z,9.57
2019-02-28T22:30:56.187Z,9.40
2019-02-28T22:33:48.820Z,8.93
2019-02-28T22:36:30.503Z,9.57
2019-02-28T22:39:00.387Z,10.00
2019-02-28T22:41:32.046Z,10.27
2019-02-28T22:44:01.591Z,9.53
2019-02-28T22:46:35.044Z,10.10
2019-02-28T22:49:08.688Z,9.63
2019-02-28T22:51:44.120Z,10.20
2019-02-28T22:54:16.442Z,9.90
2019-02-28T22:56:46.211Z,9.70
2019-02-28T22:59:21.261Z,11.03
2019-02-28T23:01:52.085Z,10.37
2019-02-28T23:04:25.947Z,9.83
2019-02-28T23:06:55.724Z,9.27
2019-02-28T23:09:28.475Z,9.67
2019-02-28T23:12:06.144Z,10.07
2019-02-28T23:14:38.136Z,9.73
2019-02-28T23:17:10.214Z,10.03
2019-02-28T23:19:43.256Z,9.90
2019-02-28T23:22:16.900Z,9.83
2019-02-28T23:24:46.704Z,9.40
2019-02-28T23:27:19.796Z,9.40
2019-02-28T23:30:48.493Z,9.63
2019-02-28T23:33:27.022Z,9.27
2019-02-28T23:35:56.629Z,9.77
2019-02-28T23:38:26.198Z,9.17
2019-02-28T23:40:58.048Z,9.63
2019-02-28T23:43:27.494Z,9.63
2019-02-28T23:45:57.122Z,10.03
2019-02-28T23:48:26.689Z,9.40
2019-02-28T23:50:59.735Z,10.17
2019-02-28T23:53:33.104Z,9.20
2019-02-28T23:56:05.540Z,9.03
2019-02-28T23:58:35.206Z,9.70
